Time;durP1;ratioP1;P1;durP2;ratioP2;P2;SDS_P1;SDS_P2;PMS_P1;PMS_P2;Temp;Humidity;BMP_temperature;BMP_pressure;BME280_temperature;BME280_humidity;BME280_pressure;Samples;Min_cycle;Max_cycle;Signal;HPM_P1;HPM_P2
2022/09/09 00:02:19;;;;;;;1.33;0.70;;;17.10;99.90;;;;;;5075501;28;20028;-81
2022/09/09 00:05:01;;;;;;;1.98;0.90;;;17.10;99.90;;;;;;5073007;28;20423;-84
2022/09/09 00:07:49;;;;;;;1.98;0.82;;;17.10;99.90;;;;;;5067568;28;20128;-83
2022/09/09 00:10:33;;;;;;;1.45;0.80;;;17.10;99.90;;;;;;5059225;28;20056;-82
2022/09/09 00:13:34;;;;;;;1.95;0.82;;;17.10;99.90;;;;;;5069067;28;20031;-82
2022/09/09 00:16:08;;;;;;;0.80;0.55;;;17.00;99.90;;;;;;5063724;28;20479;-84
2022/09/09 00:18:45;;;;;;;2.50;0.80;;;17.00;99.90;;;;;;5065968;28;20469;-83
2022/09/09 00:21:15;;;;;;;3.55;0.70;;;17.00;99.90;;;;;;5067407;28;20036;-82
2022/09/09 00:23:52;;;;;;;1.13;0.77;;;17.00;99.90;;;;;;5052166;28;20055;-82
2022/09/09 00:26:43;;;;;;;1.80;0.75;;;17.00;99.90;;;;;;5069261;28;20370;-81
2022/09/09 00:29:44;;;;;;;1.92;0.98;;;16.90;99.90;;;;;;5080242;28;20040;-81
2022/09/09 00:32:16;;;;;;;3.08;0.70;;;16.90;99.90;;;;;;5060058;28;20036;-82
2022/09/09 00:35:15;;;;;;;2.13;0.75;;;16.90;99.90;;;;;;5069576;28;20028;-83
2022/09/09 00:37:43;;;;;;;0.73;0.60;;;16.90;99.90;;;;;;5056841;28;20060;-82
2022/09/09 00:40:23;;;;;;;3.00;0.63;;;16.90;99.90;;;;;;5057787;28;20644;-80
2022/09/09 00:42:58;;;;;;;1.40;0.85;;;16.90;99.90;;;;;;5068927;28;20021;-83
2022/09/09 00:45:54;;;;;;;2.00;0.82;;;16.80;99.90;;;;;;5069041;28;20077;-82
2022/09/09 00:48:26;;;;;;;3.28;1.05;;;16.80;99.90;;;;;;5069137;28;20029;-81
2022/09/09 00:51:05;;;;;;;0.90;0.68;;;16.80;99.90;;;;;;5072768;28;20032;-81
2022/09/09 00:53:39;;;;;;;2.78;0.80;;;16.80;99.90;;;;;;5066766;28;20083;-81
2022/09/09 00:56:21;;;;;;;4.07;0.77;;;16.80;99.90;;;;;;5066643;28;20418;-83
2022/09/09 00:59:06;;;;;;;1.35;0.80;;;16.70;99.90;;;;;;5074811;28;20029;-81
2022/09/09 01:01:32;;;;;;;2.60;1.00;;;16.80;99.90;;;;;;5068323;28;20051;-80
2022/09/09 01:03:59;;;;;;;2.75;0.80;;;16.70;99.90;;;;;;5070455;28;20445;-81
2022/09/09 01:06:39;;;;;;;1.35;0.70;;;16.70;99.90;;;;;;5079414;28;20036;-83
2022/09/09 01:09:34;;;;;;;2.38;0.90;;;16.70;99.90;;;;;;5071446;28;20392;-83
2022/09/09 01:12:14;;;;;;;3.28;1.30;;;16.70;99.90;;;;;;5065961;28;20377;-82
2022/09/09 01:14:45;;;;;;;2.92;1.17;;;16.60;99.90;;;;;;5070367;28;20475;-82
2022/09/09 01:17:27;;;;;;;3.83;0.90;;;16.60;99.90;;;;;;5068084;28;20111;-82
2022/09/09 01:20:06;;;;;;;2.60;1.00;;;16.60;99.90;;;;;;5063211;28;20024;-82
2022/09/09 01:23:10;;;;;;;2.17;0.80;;;16.60;99.90;;;;;;5066554;28;20119;-82
2022/09/09 01:26:14;;;;;;;2.03;1.27;;;16.60;99.90;;;;;;5067738;28;20488;-82
2022/09/09 01:28:41;;;;;;;2.85;1.02;;;16.60;99.90;;;;;;5066880;28;20024;-83
2022/09/09 01:31:11;;;;;;;1.30;0.90;;;16.70;99.90;;;;;;5065960;28;20024;-84
2022/09/09 01:33:36;;;;;;;1.80;1.00;;;16.70;99.90;;;;;;5069032;28;20032;-84
2022/09/09 01:36:12;;;;;;;3.03;1.30;;;16.80;99.90;;;;;;5068550;28;20024;-84
2022/09/09 01:38:38;;;;;;;2.55;0.80;;;16.80;99.90;;;;;;5057488;28;20372;-84
2022/09/09 01:41:04;;;;;;;2.42;0.90;;;16.80;99.90;;;;;;5065170;28;20032;-83
2022/09/09 01:43:30;;;;;;;4.68;0.90;;;16.70;99.90;;;;;;5071469;28;20067;-81
2022/09/09 01:45:58;;;;;;;1.85;0.60;;;16.80;99.90;;;;;;5066374;28;20489;-81
2022/09/09 01:48:25;;;;;;;3.88;1.00;;;16.70;99.90;;;;;;5072700;28;20017;-81
2022/09/09 01:50:51;;;;;;;2.13;0.70;;;16.70;99.90;;;;;;5082356;28;20048;-82
2022/09/09 01:53:18;;;;;;;3.97;0.70;;;16.70;99.90;;;;;;5061751;28;20057;-81
2022/09/09 01:55:56;;;;;;;4.32;1.55;;;16.70;99.90;;;;;;5074894;28;20036;-82
2022/09/09 01:58:31;;;;;;;1.23;0.68;;;16.70;99.90;;;;;;5071815;28;20036;-83
2022/09/09 02:01:24;;;;;;;2.60;0.70;;;16.60;99.90;;;;;;5071275;28;20033;-81
2022/09/09 02:03:53;;;;;;;1.83;0.77;;;16.70;99.90;;;;;;5067515;28;20066;-81
2022/09/09 02:06:31;;;;;;;3.45;0.77;;;16.70;99.90;;;;;;5062334;28;20496;-82
2022/09/09 02:08:59;;;;;;;3.78;0.88;;;16.70;99.90;;;;;;5059717;28;20029;-83
2022/09/09 02:11:27;;;;;;;2.72;1.00;;;16.70;99.90;;;;;;5071661;28;20024;-81
2022/09/09 02:13:57;;;;;;;2.38;0.80;;;16.70;99.90;;;;;;5067922;28;20396;-82
2022/09/09 02:16:40;;;;;;;2.28;0.80;;;16.60;99.90;;;;;;5070510;28;20358;-81
2022/09/09 02:19:12;;;;;;;;;;;16.60;99.90;;;;;;5062427;28;20060;-81
2022/09/09 02:21:41;;;;;;;2.55;1.17;;;16.60;99.90;;;;;;5073436;28;19931;-80
2022/09/09 02:24:10;;;;;;;5.57;0.90;;;16.60;99.90;;;;;;5060599;28;20029;-81
2022/09/09 02:26:40;;;;;;;4.22;0.88;;;16.60;99.90;;;;;;5067863;28;20675;-83
2022/09/09 02:29:18;;;;;;;3.83;0.88;;;16.60;99.90;;;;;;5071564;28;20158;-82
2022/09/09 02:31:46;;;;;;;3.80;0.80;;;16.60;99.90;;;;;;5069099;28;20503;-83
2022/09/09 02:34:15;;;;;;;4.30;1.00;;;16.50;99.90;;;;;;5066907;28;20037;-81
2022/09/09 02:36:43;;;;;;;1.38;0.65;;;16.50;99.90;;;;;;5070095;28;20021;-82
2022/09/09 02:39:10;;;;;;;2.17;1.33;;;16.40;99.90;;;;;;5068109;28;20040;-82
2022/09/09 02:41:39;;;;;;;1.73;1.00;;;16.40;99.90;;;;;;5069388;28;20020;-80
2022/09/09 02:44:12;;;;;;;1.45;1.00;;;16.40;99.90;;;;;;5069359;28;20028;-81
2022/09/09 02:47:24;;;;;;;2.35;0.95;;;16.40;99.90;;;;;;5068534;28;20040;-82
2022/09/09 02:50:17;;;;;;;3.95;1.00;;;16.40;99.90;;;;;;5049234;28;20058;-81
2022/09/09 02:53:10;;;;;;;5.85;1.23;;;16.40;99.90;;;;;;5072498;28;20024;-82
2022/09/09 02:55:42;;;;;;;5.60;1.10;;;16.40;99.90;;;;;;5057451;28;20388;-80
2022/09/09 02:58:11;;;;;;;1.50;0.70;;;16.30;99.90;;;;;;5080914;28;20032;-81
2022/09/09 03:00:39;;;;;;;4.97;1.92;;;16.40;99.90;;;;;;5077119;28;20077;-82
2022/09/09 03:03:06;;;;;;;2.92;1.10;;;16.40;99.90;;;;;;5078429;28;20031;-81
2022/09/09 03:05:32;;;;;;;7.60;1.17;;;16.30;99.90;;;;;;5073691;28;20019;-83
2022/09/09 03:07:58;;;;;;;3.67;1.08;;;16.30;99.90;;;;;;5065287;28;20951;-83
2022/09/09 03:10:24;;;;;;;2.25;0.80;;;16.20;99.90;;;;;;5065024;28;20509;-83
2022/09/09 03:12:50;;;;;;;2.25;0.70;;;16.30;99.90;;;;;;5070694;28;20103;-82
2022/09/09 03:15:16;;;;;;;2.83;0.90;;;16.30;99.90;;;;;;5068405;28;20024;-84
2022/09/09 03:17:42;;;;;;;2.88;1.30;;;16.30;99.90;;;;;;5067954;28;20028;-81
2022/09/09 03:20:08;;;;;;;1.58;0.73;;;16.20;99.90;;;;;;5073842;28;20032;-84
2022/09/09 03:22:34;;;;;;;3.35;0.82;;;16.20;99.90;;;;;;5083171;28;20020;-81
2022/09/09 03:25:00;;;;;;;2.90;1.00;;;16.20;99.90;;;;;;5068561;28;20031;-82
2022/09/09 03:27:26;;;;;;;2.50;0.75;;;16.30;99.90;;;;;;5070003;28;20028;-81
2022/09/09 03:29:52;;;;;;;2.63;1.10;;;16.30;99.90;;;;;;5070455;28;20039;-83
2022/09/09 03:32:18;;;;;;;3.28;0.85;;;16.20;99.90;;;;;;5077088;28;20035;-81
2022/09/09 03:34:44;;;;;;;3.38;0.95;;;16.20;99.90;;;;;;5080128;28;20043;-84
2022/09/09 03:37:10;;;;;;;1.23;0.70;;;16.30;99.90;;;;;;5083124;28;20031;-82
2022/09/09 03:39:35;;;;;;;2.45;0.98;;;16.30;99.90;;;;;;5070619;28;20115;-82
2022/09/09 03:42:04;;;;;;;2.95;0.88;;;16.30;99.90;;;;;;5065666;28;20029;-81
2022/09/09 03:44:30;;;;;;;1.20;0.77;;;16.30;99.90;;;;;;5082824;28;20079;-82
2022/09/09 03:46:56;;;;;;;4.22;1.20;;;16.20;99.90;;;;;;5067240;28;20029;-82
2022/09/09 03:49:22;;;;;;;8.68;0.82;;;16.20;99.90;;;;;;5073496;28;20021;-81
2022/09/09 03:51:48;;;;;;;1.40;0.85;;;16.30;99.90;;;;;;5062204;28;20726;-82
2022/09/09 03:54:13;;;;;;;3.08;0.93;;;16.30;99.90;;;;;;5049627;28;20048;-82
2022/09/09 03:56:41;;;;;;;3.22;1.00;;;16.30;99.90;;;;;;5060021;28;20128;-82
2022/09/09 03:59:08;;;;;;;0.95;0.60;;;16.20;99.90;;;;;;5072513;28;20047;-82
2022/09/09 04:01:34;;;;;;;2.58;0.90;;;16.30;99.90;;;;;;5072190;28;20046;-83
2022/09/09 04:04:01;;;;;;;1.27;0.88;;;16.30;99.90;;;;;;5067874;28;20036;-83
2022/09/09 04:06:26;;;;;;;2.42;1.85;;;16.20;99.90;;;;;;5069495;28;20089;-84
2022/09/09 04:08:52;;;;;;;2.15;1.13;;;16.20;99.90;;;;;;5071432;28;20020;-86
2022/09/09 04:11:18;;;;;;;3.67;1.13;;;16.20;99.90;;;;;;5064546;28;20477;-83
2022/09/09 04:13:44;;;;;;;1.88;1.23;;;16.20;99.90;;;;;;5071477;28;20455;-83
2022/09/09 04:16:11;;;;;;;3.47;1.17;;;16.20;99.90;;;;;;5074281;28;20125;-82
2022/09/09 04:18:36;;;;;;;2.00;0.93;;;16.20;99.90;;;;;;5066445;28;20047;-82
2022/09/09 04:21:04;;;;;;;2.00;1.08;;;16.20;99.90;;;;;;5068247;28;20101;-81
2022/09/09 04:23:29;;;;;;;4.97;1.00;;;16.20;99.90;;;;;;5070476;28;20025;-84
2022/09/09 04:25:56;;;;;;;2.05;0.90;;;16.20;99.90;;;;;;5070753;28;20032;-81
2022/09/09 04:28:24;;;;;;;3.17;0.85;;;16.20;99.90;;;;;;5071924;28;20029;-82
2022/09/09 04:30:50;;;;;;;4.88;0.98;;;16.20;99.90;;;;;;5070640;28;20460;-83
2022/09/09 04:33:17;;;;;;;3.95;0.77;;;16.20;99.90;;;;;;5070345;28;20027;-80
2022/09/09 04:35:48;;;;;;;6.65;0.98;;;16.20;99.90;;;;;;5070019;28;20028;-81
2022/09/09 04:38:14;;;;;;;1.73;0.80;;;16.30;99.90;;;;;;5070679;28;20039;-82
2022/09/09 04:40:42;;;;;;;1.30;0.77;;;16.30;99.90;;;;;;5073782;28;20036;-81
2022/09/09 04:43:08;;;;;;;1.90;1.10;;;16.30;99.90;;;;;;5066367;28;20453;-83
2022/09/09 04:45:34;;;;;;;2.17;0.88;;;16.30;99.90;;;;;;5071421;28;20031;-81
2022/09/09 04:47:59;;;;;;;3.10;0.80;;;16.40;99.90;;;;;;5075685;28;20031;-83
2022/09/09 04:50:25;;;;;;;1.80;0.70;;;16.40;99.90;;;;;;5067245;28;20048;-83
2022/09/09 04:52:50;;;;;;;3.10;0.82;;;16.40;99.90;;;;;;5068579;28;20036;-85
2022/09/09 04:55:16;;;;;;;6.47;0.90;;;16.40;99.90;;;;;;5064594;28;20760;-83
2022/09/09 04:57:41;;;;;;;2.63;0.70;;;16.50;99.90;;;;;;5069257;28;20380;-83
2022/09/09 05:00:09;;;;;;;3.20;0.77;;;16.40;99.90;;;;;;5065085;28;20029;-82
2022/09/09 05:02:38;;;;;;;2.20;0.88;;;16.50;99.90;;;;;;5062197;28;20464;-84
2022/09/09 05:05:04;;;;;;;2.20;0.90;;;16.50;99.90;;;;;;5070064;28;20387;-83
2022/09/09 05:07:31;;;;;;;3.33;0.80;;;16.50;99.90;;;;;;5069504;28;20028;-82
2022/09/09 05:09:56;;;;;;;1.30;0.60;;;16.60;99.90;;;;;;5068614;28;20055;-83
2022/09/09 05:12:23;;;;;;;5.05;1.10;;;16.50;99.90;;;;;;5069742;28;20110;-81
2022/09/09 05:14:49;;;;;;;2.58;0.90;;;16.50;99.90;;;;;;5070102;28;20027;-82
2022/09/09 05:17:15;;;;;;;1.80;0.70;;;16.60;99.90;;;;;;5076642;28;20593;-81
2022/09/09 05:19:40;;;;;;;2.83;0.95;;;16.60;99.90;;;;;;5058804;28;20049;-82
2022/09/09 05:22:05;;;;;;;1.27;0.80;;;16.70;99.90;;;;;;5065075;28;20380;-81
2022/09/09 05:24:33;;;;;;;3.13;0.95;;;16.70;99.90;;;;;;5070799;28;20152;-81
2022/09/09 05:26:59;;;;;;;3.53;0.90;;;16.70;99.90;;;;;;5070086;28;20033;-83
2022/09/09 05:29:26;;;;;;;4.82;0.77;;;16.80;99.90;;;;;;5069513;28;20025;-83
2022/09/09 05:31:51;;;;;;;8.60;0.90;;;16.90;99.90;;;;;;5067833;28;20474;-84
2022/09/09 05:34:17;;;;;;;2.42;0.80;;;16.90;99.90;;;;;;5068030;28;20111;-83
2022/09/09 05:36:42;;;;;;;7.78;1.05;;;17.00;99.90;;;;;;5069813;28;20025;-83
2022/09/09 05:39:08;;;;;;;3.45;0.75;;;17.10;99.90;;;;;;5068514;28;20059;-82
2022/09/09 05:41:35;;;;;;;3.33;0.90;;;17.10;99.90;;;;;;5067896;28;20020;-81
2022/09/09 05:44:01;;;;;;;2.55;1.38;;;17.20;99.90;;;;;;5070554;28;20078;-84
2022/09/09 05:46:26;;;;;;;3.60;1.55;;;17.20;99.90;;;;;;5069663;28;20024;-81
2022/09/09 05:48:53;;;;;;;3.03;1.10;;;17.30;99.90;;;;;;5070763;28;20094;-83
2022/09/09 05:51:24;;;;;;;3.63;0.70;;;17.30;99.90;;;;;;5068699;28;20047;-83
2022/09/09 05:53:51;;;;;;;2.72;0.73;;;17.40;99.90;;;;;;5069246;28;20021;-82
2022/09/09 05:56:22;;;;;;;3.80;0.70;;;17.50;99.90;;;;;;5069346;28;20033;-82
2022/09/09 05:58:49;;;;;;;2.03;0.63;;;17.50;99.80;;;;;;5070234;28;20241;-82
2022/09/09 06:01:19;;;;;;;4.30;0.85;;;17.60;99.80;;;;;;5068455;28;20032;-83
2022/09/09 06:03:47;;;;;;;2.13;0.80;;;17.60;99.90;;;;;;5068375;28;20039;-83
2022/09/09 06:06:18;;;;;;;4.65;0.90;;;17.70;99.80;;;;;;5068381;28;20031;-82
2022/09/09 06:08:45;;;;;;;1.90;0.82;;;17.70;99.60;;;;;;5069358;28;20028;-82
2022/09/09 06:11:22;;;;;;;2.67;1.10;;;17.80;99.60;;;;;;5068646;28;20028;-83
2022/09/09 06:13:50;;;;;;;1.90;0.80;;;17.80;99.30;;;;;;5057806;28;20066;-81
2022/09/09 06:16:18;;;;;;;3.03;1.10;;;17.90;99.30;;;;;;5069074;28;20113;-83
2022/09/09 06:18:44;;;;;;;2.75;1.00;;;17.90;99.30;;;;;;5073803;28;20061;-82
2022/09/09 06:21:19;;;;;;;4.38;1.05;;;18.00;99.50;;;;;;5081327;28;20037;-84
2022/09/09 06:23:45;;;;;;;3.47;0.88;;;18.00;99.10;;;;;;5071489;28;20032;-84
2022/09/09 06:26:14;;;;;;;1.52;0.60;;;18.00;99.30;;;;;;5069693;28;20099;-81
2022/09/09 06:28:41;;;;;;;1.90;1.08;;;18.10;99.20;;;;;;5069915;28;20031;-83
2022/09/09 06:31:09;;;;;;;2.88;0.90;;;18.10;99.30;;;;;;5068454;28;20029;-84
2022/09/09 06:33:39;;;;;;;3.05;0.70;;;18.20;99.30;;;;;;5072504;28;20116;-82
2022/09/09 06:36:04;;;;;;;4.35;1.25;;;18.30;99.40;;;;;;5068878;28;20028;-82
2022/09/09 06:38:31;;;;;;;3.70;0.93;;;18.30;99.40;;;;;;5069877;28;20097;-82
2022/09/09 06:40:59;;;;;;;2.97;1.13;;;18.40;99.10;;;;;;5066685;28;20043;-81
2022/09/09 06:43:25;;;;;;;3.53;1.90;;;18.40;99.40;;;;;;5072134;28;20540;-83
2022/09/09 06:45:56;;;;;;;2.40;0.70;;;18.50;99.20;;;;;;5069314;28;20020;-82
2022/09/09 06:48:21;;;;;;;4.45;0.85;;;18.50;99.00;;;;;;5069658;28;20500;-85
2022/09/09 06:50:47;;;;;;;6.10;1.10;;;18.60;99.10;;;;;;5069249;28;20123;-82
2022/09/09 06:53:16;;;;;;;6.03;0.90;;;18.60;99.00;;;;;;5068819;28;20028;-82
2022/09/09 06:55:44;;;;;;;2.55;0.63;;;18.70;99.00;;;;;;5067596;28;20024;-83
2022/09/09 06:58:09;;;;;;;3.90;0.88;;;18.70;99.00;;;;;;5069696;28;20035;-83
2022/09/09 07:00:37;;;;;;;2.03;1.38;;;18.80;98.80;;;;;;5068288;28;20020;-83
2022/09/09 07:03:03;;;;;;;2.80;0.88;;;18.90;99.00;;;;;;5067231;28;20024;-82
2022/09/09 07:05:28;;;;;;;1.58;0.70;;;19.00;98.70;;;;;;5070243;28;20047;-82
2022/09/09 07:07:54;;;;;;;4.22;1.05;;;19.00;98.20;;;;;;5071063;28;20033;-85
2022/09/09 07:10:19;;;;;;;4.55;0.73;;;19.10;98.50;;;;;;5075522;28;20052;-84
2022/09/09 07:12:51;;;;;;;3.17;0.82;;;19.10;97.90;;;;;;5091316;28;20027;-82
2022/09/09 07:15:18;;;;;;;3.03;0.75;;;19.20;98.10;;;;;;5091822;28;20024;-83
2022/09/09 07:17:44;;;;;;;2.40;0.70;;;19.30;97.80;;;;;;5068253;28;20035;-85
2022/09/09 07:20:10;;;;;;;3.53;0.60;;;19.20;97.60;;;;;;5071227;28;20119;-84
2022/09/09 07:22:35;;;;;;;1.92;0.70;;;19.30;97.50;;;;;;5068829;28;20025;-82
2022/09/09 07:25:02;;;;;;;2.38;0.75;;;19.30;97.50;;;;;;5069547;28;20031;-82
2022/09/09 07:27:27;;;;;;;2.97;0.60;;;19.40;97.60;;;;;;5069419;28;20023;-84
2022/09/09 07:29:54;;;;;;;3.08;0.70;;;19.50;97.40;;;;;;5068485;28;20032;-84
2022/09/09 07:32:20;;;;;;;2.33;0.80;;;19.60;97.30;;;;;;5066304;28;20028;-81
2022/09/09 07:34:46;;;;;;;1.65;1.05;;;19.60;97.10;;;;;;5067765;28;20473;-83
2022/09/09 07:37:13;;;;;;;1.52;0.60;;;19.60;97.10;;;;;;5066856;28;20476;-83
2022/09/09 07:39:39;;;;;;;2.75;0.75;;;19.70;97.00;;;;;;5069498;28;20025;-85
2022/09/09 07:42:05;;;;;;;2.38;0.68;;;19.70;97.00;;;;;;5067241;28;20534;-84
2022/09/09 07:44:34;;;;;;;2.13;1.05;;;19.70;96.90;;;;;;5066706;28;20024;-83
2022/09/09 07:47:00;;;;;;;2.17;0.70;;;19.80;97.30;;;;;;5068503;28;20452;-82
2022/09/09 07:49:25;;;;;;;12.50;0.85;;;19.80;97.20;;;;;;5060713;28;20106;-82
2022/09/09 07:51:51;;;;;;;3.78;1.15;;;19.80;97.20;;;;;;5063425;28;20029;-83
2022/09/09 07:54:20;;;;;;;1.52;0.85;;;19.80;96.90;;;;;;5068535;28;20078;-83
2022/09/09 07:56:46;;;;;;;4.05;0.55;;;19.90;96.80;;;;;;5066663;28;20069;-83
2022/09/09 07:59:13;;;;;;;9.73;1.00;;;19.80;96.80;;;;;;5068776;28;20029;-81
2022/09/09 08:01:54;;;;;;;3.05;0.40;;;19.90;96.80;;;;;;5067701;28;20764;-82
2022/09/09 08:04:21;;;;;;;1.90;0.60;;;20.00;96.70;;;;;;5067658;28;20152;-82
2022/09/09 08:06:57;;;;;;;1.42;0.47;;;20.00;96.90;;;;;;5061469;28;20468;-85
2022/09/09 08:09:26;;;;;;;1.38;0.50;;;20.20;96.40;;;;;;5066845;28;20099;-83
2022/09/09 08:11:52;;;;;;;5.47;0.70;;;20.30;96.70;;;;;;5067956;28;20024;-83
2022/09/09 08:14:18;;;;;;;1.98;0.50;;;20.40;95.80;;;;;;5067931;28;20488;-86
2022/09/09 08:16:46;;;;;;;5.28;0.95;;;20.50;96.10;;;;;;5065981;28;20029;-85
2022/09/09 08:19:12;;;;;;;2.97;0.57;;;20.60;96.20;;;;;;5068445;28;20107;-85
2022/09/09 08:21:39;;;;;;;5.10;0.70;;;20.70;96.00;;;;;;5067279;28;20028;-84
2022/09/09 08:24:05;;;;;;;1.75;0.80;;;20.90;96.20;;;;;;5068878;28;20053;-83
2022/09/09 08:26:37;;;;;;;2.38;0.63;;;21.00;96.20;;;;;;5071915;28;20043;-81
2022/09/09 08:29:04;;;;;;;2.13;0.47;;;21.20;96.20;;;;;;5076298;28;20070;-82
2022/09/09 08:31:37;;;;;;;2.90;0.60;;;21.40;96.00;;;;;;5077684;28;20027;-83
2022/09/09 08:34:03;;;;;;;1.45;0.80;;;21.50;95.90;;;;;;5074967;28;20020;-82
2022/09/09 08:36:33;;;;;;;3.80;1.20;;;21.50;95.20;;;;;;5068516;28;20059;-82
2022/09/09 08:38:58;;;;;;;7.47;0.70;;;21.50;95.70;;;;;;5068570;28;20040;-82
2022/09/09 08:41:51;;;;;;;4.45;0.70;;;21.60;95.50;;;;;;5069370;28;20082;-80
2022/09/09 08:44:42;;;;;;;4.15;0.80;;;21.60;95.40;;;;;;5068839;28;20028;-81
2022/09/09 08:47:46;;;;;;;3.28;0.60;;;21.60;94.60;;;;;;5063142;28;20025;-80
2022/09/09 08:50:38;;;;;;;5.03;0.45;;;21.70;95.20;;;;;;5063293;28;20043;-82
2022/09/09 08:53:25;;;;;;;2.22;0.68;;;21.70;95.10;;;;;;5071052;28;20039;-83
2022/09/09 08:55:53;;;;;;;0.82;0.40;;;21.80;95.00;;;;;;5069508;28;20037;-82
2022/09/09 08:58:33;;;;;;;1.63;0.43;;;21.80;95.40;;;;;;5069211;28;20032;-83
2022/09/09 09:01:26;;;;;;;2.35;0.40;;;22.00;94.80;;;;;;5067123;28;20021;-83
2022/09/09 09:04:33;;;;;;;3.13;0.63;;;22.10;94.20;;;;;;5071500;28;20460;-82
2022/09/09 09:07:21;;;;;;;1.38;0.40;;;22.20;94.40;;;;;;5070274;28;20028;-82
2022/09/09 09:10:25;;;;;;;4.03;0.70;;;22.30;94.90;;;;;;5070012;28;20469;-83
2022/09/09 09:12:51;;;;;;;3.10;0.73;;;22.40;94.70;;;;;;4999358;28;20034;-82
2022/09/09 09:15:22;;;;;;;3.95;0.77;;;22.60;94.60;;;;;;5059279;28;20032;-82
2022/09/09 09:17:48;;;;;;;3.85;0.90;;;22.70;93.90;;;;;;5069205;28;20496;-83
2022/09/09 09:20:15;;;;;;;4.95;0.70;;;22.70;94.10;;;;;;5071752;28;20024;-82
2022/09/09 09:22:52;;;;;;;6.47;0.93;;;22.90;95.10;;;;;;5069453;28;20439;-82
2022/09/09 09:25:23;;;;;;;2.97;0.73;;;22.90;93.80;;;;;;5071140;28;20032;-82
2022/09/09 09:28:12;;;;;;;2.22;0.60;;;23.10;93.70;;;;;;5070072;28;20016;-82
2022/09/09 09:30:42;;;;;;;2.15;0.73;;;23.20;94.20;;;;;;5072080;28;20131;-84
2022/09/09 09:33:48;;;;;;;3.97;0.63;;;23.30;93.20;;;;;;5068592;28;20256;-82
2022/09/09 09:36:16;;;;;;;2.78;0.60;;;23.50;93.10;;;;;;5065297;28;20453;-82
2022/09/09 09:38:57;;;;;;;3.70;0.70;;;23.60;93.20;;;;;;5070672;28;20119;-82
2022/09/09 09:41:49;;;;;;;5.15;0.70;;;23.70;92.60;;;;;;5068879;28;20027;-82
2022/09/09 09:44:29;;;;;;;1.90;0.52;;;23.80;92.40;;;;;;5065102;28;20097;-81
2022/09/09 09:47:19;;;;;;;5.68;0.70;;;23.90;92.70;;;;;;5069657;28;20536;-84
2022/09/09 09:49:56;;;;;;;2.63;0.50;;;24.00;91.60;;;;;;5070131;28;20043;-81
2022/09/09 09:52:24;;;;;;;0.90;0.30;;;24.00;91.10;;;;;;5069619;28;20405;-82
2022/09/09 09:54:50;;;;;;;3.30;0.80;;;24.00;91.00;;;;;;5072574;28;20525;-81
2022/09/09 09:57:17;;;;;;;3.13;0.47;;;24.00;91.80;;;;;;5068951;28;20029;-82
2022/09/09 09:59:43;;;;;;;1.95;0.50;;;24.10;91.50;;;;;;5069388;28;20024;-82
2022/09/09 10:02:19;;;;;;;3.75;0.80;;;24.10;91.30;;;;;;5069883;28;20547;-83
2022/09/09 10:04:46;;;;;;;2.47;0.70;;;24.10;91.80;;;;;;5068844;28;20465;-81
2022/09/09 10:07:20;;;;;;;2.83;0.60;;;24.20;91.80;;;;;;5069211;28;20031;-81
2022/09/09 10:09:53;;;;;;;2.55;0.60;;;24.20;91.40;;;;;;5075248;28;20020;-81
2022/09/09 10:12:30;;;;;;;2.35;0.77;;;24.30;92.50;;;;;;5074502;28;20040;-84
2022/09/09 10:15:02;;;;;;;1.25;0.50;;;24.40;92.20;;;;;;5070507;28;20381;-81
2022/09/09 10:18:04;;;;;;;5.20;0.70;;;24.50;92.40;;;;;;5076432;28;20036;-82
2022/09/09 10:21:07;;;;;;;1.80;0.40;;;24.70;91.40;;;;;;5064083;28;20107;-81
2022/09/09 10:23:48;;;;;;;1.50;0.40;;;24.80;91.20;;;;;;5039169;28;20041;-82
2022/09/09 10:26:54;;;;;;;1.52;0.55;;;24.90;91.20;;;;;;5063200;28;20086;-84
2022/09/09 10:29:26;;;;;;;0.60;0.40;;;24.90;91.10;;;;;;5068087;28;20094;-81
2022/09/09 10:32:22;;;;;;;1.90;0.50;;;24.90;91.20;;;;;;5059043;28;20036;-80
2022/09/09 10:35:08;;;;;;;3.80;0.70;;;25.00;90.40;;;;;;5068221;28;20036;-80
2022/09/09 10:37:54;;;;;;;1.95;0.52;;;25.10;90.60;;;;;;5067330;28;20029;-83
2022/09/09 10:40:32;;;;;;;5.82;0.73;;;25.20;90.90;;;;;;5068245;28;20419;-80
2022/09/09 10:43:28;;;;;;;2.40;0.60;;;25.30;90.20;;;;;;5057121;28;20412;-81
2022/09/09 10:46:15;;;;;;;0.75;0.30;;;25.30;90.70;;;;;;5050947;28;20111;-81
2022/09/09 10:49:15;;;;;;;1.52;0.60;;;25.40;90.00;;;;;;5054026;28;20492;-82
2022/09/09 10:52:07;;;;;;;4.95;0.70;;;25.40;89.90;;;;;;5057882;28;20055;-80
2022/09/09 10:54:56;;;;;;;6.00;0.87;;;25.40;90.30;;;;;;5081143;28;20016;-79
2022/09/09 10:57:37;;;;;;;1.55;0.50;;;25.40;90.60;;;;;;5070967;28;20512;-84
2022/09/09 11:00:24;;;;;;;6.47;0.93;;;25.40;90.90;;;;;;5058732;28;20021;-78
2022/09/09 11:03:02;;;;;;;3.40;0.80;;;25.40;89.90;;;;;;5069030;28;20039;-83
2022/09/09 11:05:56;;;;;;;1.73;0.50;;;25.40;90.20;;;;;;5063589;28;20055;-82
2022/09/09 11:08:31;;;;;;;2.33;0.70;;;25.30;90.00;;;;;;5052601;28;20097;-83
2022/09/09 11:11:19;;;;;;;1.95;0.40;;;25.30;89.60;;;;;;5066901;28;20457;-83
2022/09/09 11:13:51;;;;;;;1.95;0.60;;;25.20;90.10;;;;;;5058438;28;20020;-82
2022/09/09 11:16:41;;;;;;;4.68;0.77;;;25.20;90.90;;;;;;5088522;28;20028;-83
2022/09/09 11:19:21;;;;;;;2.08;0.47;;;25.10;89.10;;;;;;5105304;28;20044;-82
2022/09/09 11:21:49;;;;;;;3.03;0.50;;;25.10;88.40;;;;;;5087027;28;20077;-82
2022/09/09 11:24:27;;;;;;;0.88;0.35;;;25.10;89.00;;;;;;5077900;28;20098;-81
2022/09/09 11:27:02;;;;;;;1.38;0.40;;;25.00;88.00;;;;;;5096371;28;20451;-82
2022/09/09 11:29:52;;;;;;;2.05;0.85;;;24.90;89.00;;;;;;5074495;28;20139;-85
2022/09/09 11:32:40;;;;;;;1.85;0.43;;;24.70;88.60;;;;;;5068014;28;20024;-86
2022/09/09 11:35:30;;;;;;;1.95;0.50;;;24.70;88.90;;;;;;5067621;28;20501;-83
2022/09/09 11:38:23;;;;;;;2.92;0.50;;;24.60;89.60;;;;;;5056973;28;20044;-81
2022/09/09 11:40:57;;;;;;;;;;;24.60;90.00;;;;;;5068719;28;20020;-82
2022/09/09 11:43:46;;;;;;;1.10;0.38;;;24.80;90.20;;;;;;5067169;28;20368;-82
2022/09/09 11:46:15;;;;;;;3.47;0.52;;;25.00;90.40;;;;;;5066646;28;20377;-83
2022/09/09 11:48:46;;;;;;;2.53;0.43;;;25.40;86.20;;;;;;5067576;28;20078;-82
2022/09/09 11:51:25;;;;;;;2.53;0.77;;;25.70;85.70;;;;;;5067710;28;20027;-83
2022/09/09 11:53:58;;;;;;;1.52;0.85;;;25.70;84.90;;;;;;5068505;28;20025;-83
2022/09/09 11:56:28;;;;;;;4.55;0.65;;;25.40;82.30;;;;;;5068082;28;20366;-84
2022/09/09 11:59:05;;;;;;;2.97;0.40;;;25.20;83.40;;;;;;5066402;28;20051;-81
2022/09/09 12:01:42;;;;;;;5.25;0.40;;;25.00;83.00;;;;;;5055351;28;20025;-80
2022/09/09 12:04:17;;;;;;;3.67;0.47;;;24.90;83.30;;;;;;5067900;28;20079;-82
2022/09/09 12:06:46;;;;;;;2.95;0.73;;;25.00;85.30;;;;;;5068515;28;20020;-82
2022/09/09 12:09:39;;;;;;;3.47;0.50;;;25.00;84.40;;;;;;5066472;28;20033;-81
2022/09/09 12:12:22;;;;;;;1.27;0.40;;;25.10;84.40;;;;;;5068004;28;20039;-81
2022/09/09 12:15:08;;;;;;;1.52;0.50;;;25.20;83.40;;;;;;5073566;28;20028;-83
2022/09/09 12:17:46;;;;;;;2.35;0.90;;;25.40;84.80;;;;;;5067457;28;20021;-81
2022/09/09 12:20:17;;;;;;;2.88;0.60;;;25.40;85.00;;;;;;5069002;28;20112;-82
2022/09/09 12:22:59;;;;;;;2.45;0.50;;;25.50;84.70;;;;;;5071460;28;20028;-81
2022/09/09 12:25:40;;;;;;;1.63;0.40;;;25.60;83.20;;;;;;5060698;28;20109;-82
2022/09/09 12:28:26;;;;;;;1.77;0.30;;;25.60;83.10;;;;;;5071589;28;20032;-81
2022/09/09 12:31:10;;;;;;;2.53;0.57;;;25.70;82.90;;;;;;5064513;28;20056;-81
2022/09/09 12:33:39;;;;;;;2.17;0.30;;;25.60;83.60;;;;;;5072766;28;20469;-82
2022/09/09 12:36:09;;;;;;;1.98;0.65;;;25.60;84.30;;;;;;5071853;28;20115;-82
2022/09/09 12:38:38;;;;;;;2.08;0.50;;;25.80;84.00;;;;;;5072102;28;20099;-80
2022/09/09 12:41:04;;;;;;;2.50;0.65;;;25.80;84.70;;;;;;5070711;28;20048;-81
2022/09/09 12:43:29;;;;;;;2.83;0.73;;;26.00;85.10;;;;;;5070899;28;20373;-81
2022/09/09 12:46:03;;;;;;;1.23;0.50;;;26.10;83.90;;;;;;5062258;28;20380;-80
2022/09/09 12:48:36;;;;;;;2.55;0.40;;;26.30;82.00;;;;;;5070000;28;20032;-81
2022/09/09 12:51:05;;;;;;;2.17;0.43;;;26.40;83.60;;;;;;5075148;28;20082;-80
2022/09/09 12:53:36;;;;;;;0.77;0.60;;;26.40;79.00;;;;;;5070850;28;20103;-81
2022/09/09 12:56:07;;;;;;;3.45;0.50;;;26.50;77.40;;;;;;5072319;28;20512;-83
2022/09/09 12:58:32;;;;;;;4.57;0.40;;;26.60;78.80;;;;;;5070721;28;20115;-81
2022/09/09 13:00:59;;;;;;;2.42;0.50;;;26.80;79.20;;;;;;5070820;28;20104;-81
2022/09/09 13:03:26;;;;;;;2.53;0.93;;;26.90;78.80;;;;;;5070635;28;20089;-83
2022/09/09 13:05:53;;;;;;;3.78;0.52;;;27.10;79.00;;;;;;5070511;28;20552;-80
2022/09/09 13:08:22;;;;;;;2.60;0.65;;;27.10;78.70;;;;;;5068359;28;20526;-80
2022/09/09 13:10:54;;;;;;;2.70;0.50;;;27.10;79.60;;;;;;5069121;28;20012;-81
2022/09/09 13:13:31;;;;;;;;;;;27.20;78.20;;;;;;5086770;28;20040;-79
2022/09/09 13:15:59;;;;;;;6.05;1.23;;;27.20;77.50;;;;;;5071767;28;20474;-79
2022/09/09 13:18:29;;;;;;;3.20;0.50;;;27.20;76.80;;;;;;5073200;28;20262;-80
2022/09/09 13:20:57;;;;;;;2.92;1.10;;;27.00;77.80;;;;;;5064692;28;20013;-82